createdAt,value
2019-04-26T00:01:38.700Z,4.17
2019-04-26T00:04:07.743Z,4.00
2019-04-26T00:06:37.734Z,2.40
2019-04-26T00:09:13.964Z,4.00
2019-04-26T00:11:53.492Z,4.83
2019-04-26T00:14:29.632Z,3.87
2019-04-26T00:16:59.970Z,7.87
2019-04-26T00:19:29.019Z,3.43
2019-04-26T00:21:58.112Z,5.23
2019-04-26T00:24:28.492Z,3.83
2019-04-26T00:26:57.254Z,3.63
2019-04-26T00:29:25.572Z,2.83
2019-04-26T00:31:54.303Z,3.80
2019-04-26T00:34:22.645Z,6.70
2019-04-26T00:36:51.036Z,4.03
2019-04-26T00:39:20.332Z,5.00
2019-04-26T00:41:49.098Z,4.63
2019-04-26T00:44:18.606Z,5.30
2019-04-26T00:46:47.383Z,3.20
2019-04-26T00:49:17.031Z,4.60
2019-04-26T00:51:46.135Z,2.97
2019-04-26T00:54:15.497Z,3.33
2019-04-26T00:56:44.253Z,4.93
2019-04-26T00:59:14.913Z,4.60
2019-04-26T01:01:44.798Z,3.33
2019-04-26T01:04:14.550Z,3.03
2019-04-26T01:06:45.517Z,3.53
2019-04-26T01:09:15.887Z,5.83
2019-04-26T01:11:44.431Z,2.13
2019-04-26T01:14:13.035Z,3.22
2019-04-26T01:16:41.423Z,3.55
2019-04-26T01:19:10.187Z,2.87
2019-04-26T01:21:44.661Z,3.33
2019-04-26T01:24:13.277Z,5.57
2019-04-26T01:26:41.860Z,1.65
2019-04-26T01:29:13.966Z,5.03
2019-04-26T01:31:48.431Z,1.90
2019-04-26T01:34:17.742Z,3.70
2019-04-26T01:36:47.483Z,2.73
2019-04-26T01:39:19.670Z,9.55
2019-04-26T01:41:51.002Z,4.17
2019-04-26T01:44:40.619Z,3.63
2019-04-26T01:47:09.223Z,2.90
2019-04-26T01:49:37.833Z,2.98
2019-04-26T01:52:10.347Z,5.97
2019-04-26T01:54:41.616Z,4.00
2019-04-26T01:57:10.379Z,2.23
2019-04-26T02:02:25.643Z,5.95
2019-04-26T02:04:58.814Z,1.97
2019-04-26T02:07:29.125Z,4.63
2019-04-26T02:09:57.723Z,4.20
2019-04-26T02:12:26.733Z,2.37
2019-04-26T02:14:55.418Z,3.20
2019-04-26T02:17:24.502Z,3.65
2019-04-26T02:19:53.985Z,3.90
2019-04-26T02:22:40.765Z,1.95
2019-04-26T02:25:09.367Z,2.73
2019-04-26T02:27:37.942Z,4.78
2019-04-26T02:30:08.119Z,3.95
2019-04-26T02:32:37.224Z,1.70
2019-04-26T02:35:06.586Z,3.63
2019-04-26T02:37:36.741Z,2.53
2019-04-26T02:40:08.979Z,3.73
2019-04-26T02:42:39.653Z,2.63
2019-04-26T02:45:34.767Z,1.97
2019-04-26T02:48:16.771Z,5.63
2019-04-26T02:50:53.017Z,6.00
2019-04-26T02:53:38.714Z,4.13
2019-04-26T02:56:10.921Z,2.50
2019-04-26T02:58:58.026Z,3.47
2019-04-26T03:01:29.330Z,2.97
2019-04-26T03:03:57.534Z,4.27
2019-04-26T03:06:26.216Z,2.73
2019-04-26T03:08:55.672Z,8.00
2019-04-26T03:11:27.071Z,3.33
2019-04-26T03:13:57.654Z,6.47
2019-04-26T03:16:33.364Z,4.63
2019-04-26T03:19:10.758Z,5.47
2019-04-26T03:22:06.962Z,3.97
2019-04-26T03:24:40.480Z,2.03
2019-04-26T03:27:35.886Z,5.47
2019-04-26T03:30:21.649Z,4.00
2019-04-26T03:32:54.018Z,5.77
2019-04-26T03:35:29.511Z,4.53
2019-04-26T03:38:21.003Z,3.97
2019-04-26T03:41:03.108Z,4.07
2019-04-26T03:43:51.762Z,6.60
2019-04-26T03:46:35.530Z,3.43
2019-04-26T03:49:24.715Z,6.43
2019-04-26T03:54:36.912Z,5.20
2019-04-26T03:57:38.779Z,5.90
2019-04-26T04:00:23.269Z,5.67
2019-04-26T04:03:28.958Z,5.90
2019-04-26T04:05:59.101Z,4.93
2019-04-26T04:08:30.989Z,4.33
2019-04-26T04:11:06.040Z,3.90
2019-04-26T04:13:54.891Z,7.73
2019-04-26T04:16:30.592Z,4.03
2019-04-26T04:19:02.479Z,5.23
2019-04-26T04:21:40.693Z,4.07
2019-04-26T04:24:14.493Z,4.50
2019-04-26T04:26:55.706Z,6.20
2019-04-26T04:29:42.941Z,3.77
2019-04-26T04:32:32.995Z,4.90
2019-04-26T04:35:10.821Z,5.10
2019-04-26T04:38:08.613Z,8.45
2019-04-26T04:40:58.790Z,4.50
2019-04-26T04:43:37.982Z,9.57
2019-04-26T04:46:17.674Z,6.87
2019-04-26T04:49:11.812Z,7.00
2019-04-26T04:51:49.891Z,9.77
2019-04-26T04:54:20.975Z,6.33
2019-04-26T04:57:10.622Z,7.70
2019-04-26T04:59:50.850Z,8.37
2019-04-26T05:02:26.946Z,7.13
2019-04-26T05:05:06.320Z,10.50
2019-04-26T05:08:06.752Z,9.77
2019-04-26T05:10:39.976Z,9.50
2019-04-26T05:13:11.958Z,9.67
2019-04-26T05:16:20.256Z,6.67
2019-04-26T05:19:13.242Z,13.00
2019-04-26T05:22:07.969Z,10.70
2019-04-26T05:24:56.370Z,8.83
2019-04-26T05:27:48.241Z,11.95
2019-04-26T05:30:39.484Z,11.00
2019-04-26T05:33:11.535Z,16.93
2019-04-26T05:36:07.259Z,6.77
2019-04-26T05:38:58.427Z,8.43
2019-04-26T05:41:53.535Z,10.00
2019-04-26T05:45:06.328Z,12.83
2019-04-26T05:47:38.844Z,7.50
2019-04-26T05:50:33.770Z,10.00
2019-04-26T05:53:31.269Z,18.23
2019-04-26T05:56:11.021Z,9.58
2019-04-26T05:59:10.005Z,10.13
2019-04-26T06:02:21.056Z,14.53
2019-04-26T06:05:14.959Z,8.30
2019-04-26T06:08:03.079Z,8.70
2019-04-26T06:10:45.641Z,10.13
2019-04-26T06:13:30.936Z,8.63
2019-04-26T06:16:26.967Z,15.73
2019-04-26T06:19:18.425Z,9.60
2019-04-26T06:22:10.815Z,11.07
2019-04-26T06:24:45.170Z,10.50
2019-04-26T06:27:38.573Z,8.03
2019-04-26T06:30:17.178Z,9.73
2019-04-26T06:33:00.952Z,8.88
2019-04-26T06:38:23.665Z,6.80
2019-04-26T06:41:04.915Z,8.67
2019-04-26T06:43:42.729Z,10.50
2019-04-26T06:46:33.999Z,10.57
2019-04-26T06:49:25.192Z,11.73
2019-04-26T06:51:57.512Z,12.37
2019-04-26T06:54:33.351Z,13.10
2019-04-26T06:57:38.248Z,7.63
2019-04-26T07:00:13.660Z,11.70
2019-04-26T07:03:05.679Z,8.23
2019-04-26T07:05:36.252Z,7.90
2019-04-26T07:08:17.126Z,9.10
2019-04-26T07:11:01.238Z,5.87
2019-04-26T07:13:59.331Z,8.30
2019-04-26T07:16:41.136Z,8.57
2019-04-26T07:19:49.539Z,13.93
2019-04-26T07:25:36.192Z,5.28
2019-04-26T07:28:24.693Z,8.40
2019-04-26T07:31:18.137Z,11.27
2019-04-26T07:34:22.142Z,9.60
2019-04-26T07:37:11.405Z,14.10
2019-04-26T07:40:11.610Z,12.20
2019-04-26T07:43:06.424Z,10.53
2019-04-26T07:45:52.071Z,16.50
2019-04-26T07:48:23.118Z,16.57
2019-04-26T07:51:11.636Z,11.73
2019-04-26T07:53:43.327Z,9.25
2019-04-26T07:56:34.621Z,9.67
2019-04-26T07:59:38.528Z,6.63
2019-04-26T08:02:29.354Z,6.93
2019-04-26T08:05:19.341Z,6.47
2019-04-26T08:07:54.005Z,8.03
2019-04-26T08:10:22.683Z,14.30
2019-04-26T08:12:54.561Z,8.45
2019-04-26T08:15:40.148Z,4.00
2019-04-26T08:18:13.502Z,16.20
2019-04-26T08:20:52.715Z,20.57
2019-04-26T08:23:39.218Z,6.87
2019-04-26T08:25:56.430Z,6.43
2019-04-26T08:28:25.113Z,6.43
2019-04-26T08:30:55.195Z,7.08
2019-04-26T08:33:27.519Z,4.23
2019-04-26T08:35:56.187Z,7.03
2019-04-26T08:38:25.066Z,6.40
2019-04-26T08:40:53.717Z,6.20
2019-04-26T08:43:35.971Z,4.62
2019-04-26T08:46:12.573Z,6.33
2019-04-26T08:48:41.177Z,5.50
2019-04-26T08:51:21.847Z,10.27
2019-04-26T08:53:50.876Z,4.73
2019-04-26T08:56:28.400Z,5.17
2019-04-26T08:59:00.279Z,3.43
2019-04-26T09:01:30.535Z,22.30
2019-04-26T09:04:00.864Z,12.23
2019-04-26T09:06:39.967Z,7.07
2019-04-26T09:09:14.402Z,8.10
2019-04-26T09:11:41.665Z,5.30
2019-04-26T09:14:10.554Z,9.50
2019-04-26T09:16:49.858Z,9.07
2019-04-26T09:19:09.554Z,8.60
2019-04-26T09:24:27.424Z,15.72
2019-04-26T09:27:06.644Z,9.83
2019-04-26T09:29:36.996Z,10.90
2019-04-26T09:32:10.037Z,10.70
2019-04-26T09:34:41.540Z,10.07
2019-04-26T09:37:10.976Z,14.27
2019-04-26T09:39:41.570Z,12.90
2019-04-26T09:42:26.658Z,11.23
2019-04-26T09:45:11.991Z,8.43
2019-04-26T09:47:48.068Z,7.30
2019-04-26T09:50:24.143Z,4.93
2019-04-26T09:52:54.302Z,6.43
2019-04-26T09:55:34.540Z,5.47
2019-04-26T09:57:53.484Z,7.93
2019-04-26T10:00:30.609Z,12.23
2019-04-26T10:02:59.378Z,4.23
2019-04-26T10:05:27.696Z,7.42
2019-04-26T10:07:56.317Z,23.70
2019-04-26T10:10:26.354Z,6.95
2019-04-26T10:12:56.607Z,7.30
2019-04-26T10:15:29.800Z,7.87
2019-04-26T10:17:59.170Z,5.67
2019-04-26T10:20:27.827Z,4.83
2019-04-26T10:22:56.356Z,9.38
2019-04-26T10:25:24.682Z,5.67
2019-04-26T10:27:53.371Z,6.60
2019-04-26T10:30:21.697Z,4.47
2019-04-26T10:32:50.097Z,7.08
2019-04-26T10:35:21.737Z,4.90
2019-04-26T10:37:49.287Z,8.83
2019-04-26T10:40:18.397Z,2.90
2019-04-26T10:45:16.326Z,6.45
2019-04-26T10:47:45.131Z,3.93
2019-04-26T10:50:13.825Z,4.92
2019-04-26T10:55:21.114Z,4.33
2019-04-26T10:57:55.852Z,6.77
2019-04-26T11:00:38.137Z,5.63
2019-04-26T11:03:06.823Z,7.70
2019-04-26T11:05:35.204Z,12.45
2019-04-26T11:08:03.774Z,9.00
2019-04-26T11:13:00.028Z,8.18
2019-04-26T11:17:57.683Z,4.12
2019-04-26T11:20:26.302Z,6.50
2019-04-26T11:25:24.705Z,3.52
2019-04-26T11:27:53.073Z,6.63
2019-04-26T11:35:17.831Z,3.20
2019-04-26T11:40:15.875Z,3.25
2019-04-26T11:42:45.762Z,2.70
2019-04-26T11:45:16.101Z,7.27
2019-04-26T11:47:55.477Z,3.00
2019-04-26T11:50:16.057Z,2.53
2019-04-26T11:52:45.274Z,2.03
2019-04-26T11:57:43.664Z,2.67
2019-04-26T12:00:15.100Z,2.70
2019-04-26T12:02:46.323Z,2.47
2019-04-26T12:05:31.341Z,3.20
2019-04-26T12:08:07.451Z,3.40
2019-04-26T12:10:36.127Z,5.87
2019-04-26T12:13:05.961Z,8.95
2019-04-26T12:15:34.968Z,3.53
2019-04-26T12:18:05.606Z,3.65
2019-04-26T12:20:33.917Z,3.40
2019-04-26T12:23:02.568Z,5.60
2019-04-26T12:28:02.053Z,2.83
2019-04-26T12:30:30.003Z,3.03
2019-04-26T12:35:26.438Z,3.20
2019-04-26T12:37:55.819Z,3.72
2019-04-26T12:40:24.543Z,3.17
2019-04-26T12:42:53.023Z,4.17
2019-04-26T12:47:55.337Z,3.90
2019-04-26T12:50:24.021Z,3.80
2019-04-26T12:55:21.952Z,4.15
2019-04-26T13:00:20.058Z,5.33
2019-04-26T13:02:50.140Z,3.53
2019-04-26T13:05:20.548Z,3.80
2019-04-26T13:07:53.889Z,6.00
2019-04-26T13:10:44.798Z,3.60
2019-04-26T13:13:23.500Z,4.30
2019-04-26T13:16:06.164Z,4.23
2019-04-26T13:18:34.862Z,8.47
2019-04-26T13:21:04.340Z,4.42
2019-04-26T13:23:33.234Z,5.87
2019-04-26T13:26:01.771Z,6.47
2019-04-26T13:28:30.525Z,6.07
2019-04-26T13:31:01.911Z,4.03
2019-04-26T13:33:29.292Z,12.87
2019-04-26T13:38:27.122Z,5.12
2019-04-26T13:40:55.498Z,5.28
2019-04-26T13:43:26.996Z,6.83
2019-04-26T13:45:56.043Z,7.53
2019-04-26T13:48:39.142Z,4.60
2019-04-26T13:51:16.087Z,4.27
2019-04-26T13:53:44.808Z,13.00
2019-04-26T13:58:41.121Z,5.12
2019-04-26T14:06:05.803Z,6.83
2019-04-26T14:08:34.196Z,6.80
2019-04-26T14:11:02.608Z,6.67
2019-04-26T14:13:31.214Z,7.22
2019-04-26T14:18:28.244Z,8.00
2019-04-26T14:20:58.910Z,6.90
2019-04-26T14:23:34.651Z,6.93
2019-04-26T14:26:10.781Z,8.17
2019-04-26T14:28:41.914Z,8.77
2019-04-26T14:31:12.332Z,7.90
2019-04-26T14:33:40.220Z,14.13
2019-04-26T14:38:40.229Z,11.45
2019-04-26T14:41:08.485Z,10.23
2019-04-26T14:43:40.892Z,10.80
2019-04-26T14:46:10.356Z,18.30
2019-04-26T14:48:40.533Z,9.93
2019-04-26T14:51:12.017Z,10.30
2019-04-26T14:53:38.656Z,10.07
2019-04-26T14:56:07.420Z,10.50
2019-04-26T14:58:36.209Z,9.83
2019-04-26T15:01:15.632Z,10.30
2019-04-26T15:03:45.966Z,13.53
2019-04-26T15:06:23.675Z,6.80
2019-04-26T15:08:53.115Z,10.10
2019-04-26T15:11:22.939Z,8.27
2019-04-26T15:13:51.810Z,7.57
2019-04-26T15:16:22.240Z,6.63
2019-04-26T15:18:52.448Z,8.10
2019-04-26T15:21:22.832Z,5.90
2019-04-26T15:23:55.432Z,5.67
2019-04-26T15:26:27.439Z,4.93
2019-04-26T15:28:52.685Z,6.80
2019-04-26T15:31:24.695Z,5.37
2019-04-26T15:33:52.833Z,4.10
2019-04-26T15:36:23.136Z,4.13
2019-04-26T15:38:52.815Z,3.83
2019-04-26T15:41:29.255Z,3.57
2019-04-26T15:44:02.718Z,3.37
2019-04-26T15:46:49.902Z,4.77
2019-04-26T15:49:36.514Z,6.73
2019-04-26T15:52:02.944Z,9.40
2019-04-26T15:54:32.360Z,2.60
2019-04-26T15:57:02.179Z,4.20
2019-04-26T15:59:30.910Z,4.73
2019-04-26T16:01:59.288Z,5.83
2019-04-26T16:04:27.699Z,10.32
2019-04-26T16:06:56.381Z,1.57
2019-04-26T16:09:25.081Z,2.30
2019-04-26T16:11:55.295Z,2.20
2019-04-26T16:14:26.465Z,3.27
2019-04-26T16:16:54.399Z,2.97
2019-04-26T16:19:26.676Z,1.67
2019-04-26T16:21:55.273Z,3.53
2019-04-26T16:24:24.098Z,1.83
2019-04-26T16:26:56.142Z,1.80
2019-04-26T16:29:28.624Z,2.07
2019-04-26T16:31:58.935Z,4.63
2019-04-26T16:34:32.475Z,2.87
2019-04-26T16:37:02.951Z,3.37
2019-04-26T16:39:38.270Z,2.23
2019-04-26T16:42:05.165Z,4.03
2019-04-26T16:44:33.470Z,3.77
2019-04-26T16:47:05.703Z,2.07
2019-04-26T16:49:35.172Z,3.20
2019-04-26T16:52:06.822Z,6.40
2019-04-26T16:54:34.334Z,1.97
2019-04-26T16:57:06.380Z,3.67
2019-04-26T16:59:33.452Z,5.17
2019-04-26T17:02:02.805Z,7.20
2019-04-26T17:04:35.148Z,2.60
2019-04-26T17:07:04.795Z,3.30
2019-04-26T17:09:54.280Z,5.93
2019-04-26T17:12:02.665Z,3.90
2019-04-26T17:14:33.970Z,2.12
2019-04-26T17:17:03.168Z,2.43
2019-04-26T17:19:34.287Z,3.17
2019-04-26T17:22:15.989Z,3.27
2019-04-26T17:24:49.407Z,9.60
2019-04-26T17:27:19.739Z,4.17
2019-04-26T17:29:48.422Z,4.73
2019-04-26T17:32:17.452Z,6.60
2019-04-26T17:34:47.459Z,7.33
2019-04-26T17:37:17.470Z,6.73
2019-04-26T17:39:47.513Z,4.73
2019-04-26T17:42:16.713Z,5.80
2019-04-26T17:44:45.415Z,18.27
2019-04-26T17:47:14.121Z,20.65
2019-04-26T17:49:44.009Z,5.62
2019-04-26T17:52:12.812Z,6.77
2019-04-26T17:54:46.699Z,6.37
2019-04-26T17:57:14.405Z,5.73
2019-04-26T17:59:47.690Z,6.67
2019-04-26T18:02:25.858Z,7.47
2019-04-26T18:04:43.238Z,10.07
2019-04-26T18:07:36.098Z,6.57
2019-04-26T18:09:46.544Z,6.60
2019-04-26T18:12:12.783Z,6.93
2019-04-26T18:14:41.189Z,7.60
2019-04-26T18:17:11.505Z,6.60
2019-04-26T18:19:47.831Z,8.13
2019-04-26T18:22:28.506Z,10.33
2019-04-26T18:24:57.458Z,8.37
2019-04-26T18:27:29.826Z,9.35
2019-04-26T18:29:59.839Z,7.77
2019-04-26T18:32:27.149Z,10.32
2019-04-26T18:34:55.762Z,9.05
2019-04-26T18:37:24.433Z,10.40
2019-04-26T18:39:53.527Z,10.43
2019-04-26T18:42:22.355Z,10.30
2019-04-26T18:44:51.058Z,9.43
2019-04-26T18:47:27.456Z,15.35
2019-04-26T18:49:57.983Z,24.43
2019-04-26T18:52:26.042Z,22.75
2019-04-26T18:55:05.775Z,13.93
2019-04-26T18:57:34.580Z,16.53
2019-04-26T19:00:04.203Z,17.62
2019-04-26T19:02:33.350Z,20.05
2019-04-26T19:05:05.676Z,18.87
2019-04-26T19:07:34.687Z,20.40
2019-04-26T19:10:05.597Z,21.15
2019-04-26T19:12:34.649Z,18.73
2019-04-26T19:15:22.099Z,18.73
2019-04-26T19:17:52.432Z,18.97
2019-04-26T19:20:39.579Z,19.00
2019-04-26T19:23:09.361Z,18.42
2019-04-26T19:25:40.845Z,19.07
2019-04-26T19:28:09.106Z,22.05
2019-04-26T19:30:39.950Z,23.73
2019-04-26T19:33:11.510Z,22.98
2019-04-26T19:35:39.395Z,24.05
2019-04-26T19:38:13.312Z,25.72
2019-04-26T19:40:46.353Z,26.15
2019-04-26T19:43:12.441Z,25.37
2019-04-26T19:45:47.025Z,26.97
2019-04-26T19:48:20.446Z,26.27
2019-04-26T19:50:52.716Z,26.48
2019-04-26T19:53:24.928Z,27.77
2019-04-26T19:55:58.389Z,31.77
2019-04-26T19:58:28.661Z,32.97
2019-04-26T20:00:57.341Z,31.27
2019-04-26T20:03:26.067Z,32.88
2019-04-26T20:05:54.467Z,34.85
2019-04-26T20:08:23.522Z,36.45
2019-04-26T20:10:52.356Z,31.57
2019-04-26T20:13:22.038Z,35.40
2019-04-26T20:15:53.042Z,35.33
2019-04-26T20:18:21.897Z,36.77
2019-04-26T20:20:52.114Z,39.80
2019-04-26T20:23:22.721Z,40.08
2019-04-26T20:25:53.060Z,41.48
2019-04-26T20:28:22.898Z,39.58
2019-04-26T20:31:08.602Z,38.85
2019-04-26T20:33:36.569Z,39.27
2019-04-26T20:36:05.346Z,40.23
2019-04-26T20:38:42.844Z,38.30
2019-04-26T20:41:04.564Z,43.80
2019-04-26T20:43:36.317Z,42.13
2019-04-26T20:46:14.041Z,44.95
2019-04-26T20:48:39.808Z,42.10
2019-04-26T20:51:10.863Z,41.68
2019-04-26T20:53:41.339Z,43.45
2019-04-26T20:56:16.243Z,48.87
2019-04-26T20:58:43.305Z,44.27
2019-04-26T21:01:14.099Z,48.87
2019-04-26T21:03:45.786Z,47.00
2019-04-26T21:06:12.853Z,47.48
2019-04-26T21:08:42.427Z,50.33
2019-04-26T21:11:13.708Z,45.52
2019-04-26T21:13:42.296Z,50.33
2019-04-26T21:16:15.339Z,47.17
2019-04-26T21:18:44.274Z,47.15
2019-04-26T21:21:15.689Z,49.08
2019-04-26T21:23:44.022Z,47.35
2019-04-26T21:26:17.650Z,48.17
2019-04-26T21:28:48.203Z,51.33
2019-04-26T21:31:24.852Z,47.98
2019-04-26T21:34:07.937Z,52.60
2019-04-26T21:36:46.068Z,41.93
2019-04-26T21:39:19.625Z,44.00
2019-04-26T21:41:50.274Z,48.92
2019-04-26T21:44:19.274Z,49.45
2019-04-26T21:46:49.653Z,44.93
2019-04-26T21:49:20.746Z,42.87
2019-04-26T21:51:52.119Z,42.87
2019-04-26T21:54:19.481Z,42.53
2019-04-26T21:56:49.607Z,45.95
2019-04-26T21:59:18.503Z,44.77
2019-04-26T22:01:48.303Z,46.50
2019-04-26T22:04:17.815Z,42.83
2019-04-26T22:06:46.499Z,43.17
2019-04-26T22:09:28.625Z,44.88
2019-04-26T22:11:56.540Z,45.15
2019-04-26T22:17:08.169Z,46.05
2019-04-26T22:19:38.743Z,49.40
2019-04-26T22:22:09.388Z,51.85
2019-04-26T22:24:39.640Z,57.07
2019-04-26T22:27:08.333Z,60.93
2019-04-26T22:29:36.978Z,55.95
2019-04-26T22:32:05.948Z,51.10
2019-04-26T22:37:11.155Z,45.92
2019-04-26T22:39:39.838Z,47.55
2019-04-26T22:42:05.447Z,54.03
2019-04-26T22:44:36.102Z,49.40
2019-04-26T22:47:09.635Z,45.23
2019-04-26T22:49:41.618Z,49.53
2019-04-26T22:52:11.215Z,46.08
2019-04-26T22:54:44.674Z,51.37
2019-04-26T22:57:13.162Z,47.10
2019-04-26T22:59:43.311Z,49.70
2019-04-26T23:02:13.814Z,48.65
2019-04-26T23:04:42.988Z,48.98
2019-04-26T23:10:17.588Z,51.28
2019-04-26T23:12:51.008Z,50.88
2019-04-26T23:15:37.979Z,51.35
2019-04-26T23:18:20.897Z,51.77
2019-04-26T23:20:57.621Z,49.10
2019-04-26T23:23:26.552Z,53.87
2019-04-26T23:25:55.181Z,53.17
2019-04-26T23:28:27.627Z,54.03
2019-04-26T23:30:54.700Z,48.87
2019-04-26T23:33:23.965Z,49.30
2019-04-26T23:35:53.193Z,55.88
2019-04-26T23:38:23.412Z,59.73
2019-04-26T23:40:52.540Z,52.00
2019-04-26T23:43:22.496Z,58.92
2019-04-26T23:45:53.029Z,97.10
2019-04-26T23:48:21.756Z,70.10
2019-04-26T23:50:50.446Z,54.70
2019-04-26T23:53:20.199Z,53.83
2019-04-26T23:55:49.430Z,55.78
2019-04-26T23:58:18.109Z,56.88
